Terminal Aerodrome Forecast
Issued by NWS Pocatello, ID

Home | Current Version | Previous Version | Text Only | Print | Product List | Glossary On
Versions: 1 2 3 4 5 6 7 8 9 10 11 12 13 14 15 16 17 18 19 20
281
FTUS45 KPIH 290520
TAFPIH
TAF
KPIH 290520Z 2906/3006 19010KT P6SM SCT030
     FM291400 20008KT P6SM FEW030 SCT110 BKN130
     FM291800 19011KT P6SM FEW050 BKN070 OVC090
     FM300100 19013KT P6SM VCSH BKN040 OVC070=

USA.gov is the U.S. government's official web portal to all federal, state and local government web resources and services.